Latest Weather Observations for Double Island Point

IDQ60801

Issued at 3:35 pm EST Saturday 20 September 2014 (issued every 30 minutes, with the page automatically refreshed every 10 minutes)

About weather observations | Map of weather stations | Latest weather observations for QLD | Other Formats
Station Details ID: 040068 Name: DOUBLE ISLAND POINT LIGHTHOUSE Lat: -25.93 Lon: 153.19 Height: 95.64 m
Data from the previous 72 hours. | See also: Recent months at Double Island Point
Date/Time
EST
Temp
°C
App
Temp
°C
Dew
Point
Rel
Hum
%
Delta-T
°C
Wind Press
QNH
hPa
Press
MSL
hPa
Rain
since 9 am
mm
Dir
 
Spd
km/h
Gust
km/h
Spd
kts
Gust
kts
20/03:30pm 21.8 18.2 12.9 57 5.1 E 24 28 13 15 1018.2 1017.9 0.0
20/03:00pm 21.7 18.6 12.3 55 5.3 ENE 20 24 11 13 1018.2 1017.9 0.0
20/02:30pm 23.3 20.1 11.4 47 6.7 NE 19 28 10 15 1017.8 1017.5 0.0
20/02:00pm 25.6 23.2 12.8 45 7.4 NNE 17 28 9 15 1018.0 1017.7 0.0
20/01:30pm 26.2 24.6 14.0 47 7.3 NNE 15 22 8 12 1018.3 1018.0 0.0
20/01:00pm 26.4 24.7 12.5 42 8.1 NNE 13 24 7 13 1018.6 1018.3 0.0
20/12:30pm 26.4 23.4 12.5 42 8.1 NNE 20 26 11 14 1018.9 1018.6 0.0
20/12:00pm 26.4 24.0 12.8 43 7.9 NNE 17 24 9 13 1019.3 1019.0 0.0
20/11:30am 26.1 23.5 13.2 44 7.6 NNE 19 22 10 12 1019.9 1019.6 0.0
20/11:00am 26.0 25.3 13.2 45 7.5 N 9 13 5 7 1020.3 1020.0 0.0
20/10:30am 24.7 24.5 13.6 50 6.5 N 7 11 4 6 1020.6 1020.3 0.0
20/10:00am 23.0 22.6 12.9 53 5.8 N 7 11 4 6 1020.9 1020.6 0.0
20/09:30am 22.7 21.3 12.3 52 5.9 N 11 15 6 8 1021.1 1020.9 0.0
20/09:00am 22.4 21.5 12.6 54 5.6 N 9 17 5 9 1021.1 1020.9 0.0
20/08:30am 21.3 20.0 12.4 57 5.0 NNW 11 17 6 9 1021.0 1020.7 0.0
20/08:00am 21.0 20.0 12.4 58 4.9 NNW 9 17 5 9 1020.8 1020.5 0.0
20/07:30am 20.8 20.3 12.8 60 4.6 N 7 9 4 5 1020.4 1020.1 0.0
20/07:00am 19.6 19.4 13.1 66 3.7 N 6 11 3 6 1020.0 1019.7 0.0
20/06:30am 18.5 17.0 12.0 66 3.6 NNW 11 17 6 9 1019.7 1019.4 0.0
20/06:00am 18.1 16.2 11.9 67 3.4 NNW 13 17 7 9 1019.3 1019.0 0.0
20/05:30am 18.2 15.9 11.7 66 3.6 NW 15 17 8 9 1019.0 1018.7 0.0
20/05:00am 18.2 16.0 12.2 68 3.3 NW 15 17 8 9 1018.6 1018.3 0.0
20/04:30am 18.4 16.1 13.0 71 3.0 WNW 17 19 9 10 1018.3 1018.0 0.0
20/04:00am 18.3 16.1 13.4 73 2.8 WNW 17 19 9 10 1018.2 1017.9 0.0
20/03:30am 18.3 16.2 13.6 74 2.7 WNW 17 19 9 10 1018.0 1017.7 0.0
20/03:00am 18.4 16.8 13.9 75 2.6 WNW 15 20 8 11 1018.0 1017.7 0.0
20/02:30am 18.4 16.4 13.9 75 2.6 NW 17 19 9 10 1018.1 1017.8 0.0
20/02:00am 18.4 16.3 13.7 74 2.7 NNW 17 20 9 11 1018.2 1017.9 0.0
20/01:30am 18.5 16.4 13.6 73 2.8 NNW 17 20 9 11 1018.4 1018.1 0.0
20/01:00am 18.8 17.3 13.2 70 3.2 NNW 13 20 7 11 1018.6 1018.3 0.0
20/12:30am 18.9 17.5 13.3 70 3.2 N 13 17 7 9 1019.0 1018.7 0.0
20/12:00am 19.1 17.2 13.1 68 3.4 NNW 15 20 8 11 1019.3 1019.0 0.0
 
Date/Time
EST
Temp
°C
App
Temp
°C
Dew
Point
Rel
Hum
%
Delta-T
°C
Wind Press
QNH
hPa
Press
MSL
hPa
Rain
since 9 am
mm
Dir
 
Spd
km/h
Gust
km/h
Spd
kts
Gust
kts
19/11:30pm 19.5 18.1 12.3 63 4.0 N 11 20 6 11 1019.3 1019.0 0.0
19/11:00pm 19.6 17.6 11.6 60 4.4 N 13 26 7 14 1019.5 1019.2 0.0
19/10:30pm 19.7 17.3 11.5 59 4.5 N 15 22 8 12 1019.5 1019.2 0.0
19/10:00pm 19.8 15.7 11.6 59 4.5 N 24 35 13 19 1019.4 1019.1 0.0
19/09:30pm 19.7 15.4 12.0 61 4.3 N 26 33 14 18 1019.3 1019.0 0.0
19/09:00pm 19.7 15.7 11.7 60 4.4 NNE 24 32 13 17 1019.6 1019.3 0.0
19/08:30pm 19.7 15.8 12.2 62 4.2 NNE 24 30 13 16 1019.6 1019.3 0.0
19/08:00pm 19.9 15.7 12.4 62 4.2 NNE 26 32 14 17 1019.4 1019.1 0.0
19/07:30pm 19.8 14.6 11.6 59 4.5 NNE 30 35 16 19 1019.0 1018.7 0.0
19/07:00pm 19.9 14.4 11.7 59 4.5 NNE 32 37 17 20 1018.5 1018.2 0.0
19/06:30pm 20.0 15.8 12.3 61 4.3 NNE 26 35 14 19 1017.8 1017.5 0.0
19/06:00pm 20.1 15.1 10.8 55 5.1 NNE 28 41 15 22 1017.5 1017.2 0.0
19/05:30pm 20.5 16.2 10.9 54 5.3 NNE 24 39 13 21 1017.3 1017.0 0.0
19/05:00pm 21.3 16.6 10.5 50 5.9 NNE 26 37 14 20 1017.0 1016.7 0.0
19/04:30pm 22.1 17.5 10.9 49 6.2 NNE 26 33 14 18 1016.8 1016.5 0.0
19/04:00pm 22.7 18.2 10.2 45 6.9 NNE 24 33 13 18 1016.5 1016.2 0.0
19/03:30pm 23.3 20.0 11.0 46 6.9 NE 19 30 10 16 1016.6 1016.3 0.0
19/03:00pm 23.9 20.7 11.2 44 7.1 NE 19 26 10 14 1016.8 1016.5 0.0
19/02:30pm 24.2 21.7 12.2 47 6.9 NE 17 26 9 14 1016.9 1016.6 0.0
19/02:00pm 23.7 21.1 12.0 48 6.7 NE 17 26 9 14 1017.1 1016.8 0.0
19/01:30pm 24.1 21.6 11.1 44 7.3 NE 15 24 8 13 1017.7 1017.4 0.0
19/01:00pm 24.9 22.9 11.5 43 7.6 NNE 13 17 7 9 1018.2 1017.9 0.0
19/12:30pm 26.0 24.4 12.8 44 7.7 NNE 13 19 7 10 1018.8 1018.5 0.0
19/12:00pm 25.4 23.4 11.6 42 7.8 NNE 13 20 7 11 1019.4 1019.1 0.0
19/11:30am 25.2 23.4 12.1 44 7.5 NNE 13 17 7 9 1020.0 1019.7 0.0
19/11:00am 25.1 23.6 12.0 44 7.5 N 11 17 6 9 1020.5 1020.2 0.0
19/10:30am 24.6 24.0 12.2 46 7.1 N 7 11 4 6 1020.7 1020.4 0.0
19/10:00am 23.7 23.2 12.7 50 6.3 N 7 13 4 7 1021.1 1020.9 0.0
19/09:30am 22.3 20.4 10.5 47 6.5 NNW 11 17 6 9 1021.4 1021.2 0.0
19/09:00am 22.5 21.1 10.9 48 6.4 N 9 11 5 6 1021.3 1021.1 0.0
19/08:30am 21.6 20.8 11.6 53 5.6 NNW 7 15 4 8 1021.4 1021.2 0.0
19/08:00am 20.1 18.8 11.1 56 4.9 WNW 9 13 5 7 1021.3 1021.1 0.0
19/07:30am 19.3 17.4 10.6 57 4.7 WNW 11 13 6 7 1021.2 1021.0 0.0
19/07:00am 18.5 16.5 10.3 59 4.4 WNW 11 13 6 7 1020.7 1020.4 0.0
19/06:30am 17.9 16.2 11.2 65 3.6 WNW 11 13 6 7 1020.2 1019.9 0.0
19/06:00am 17.4 16.6 11.0 66 3.5 NW 6 9 3 5 1020.0 1019.7 0.0
19/05:30am 17.7 15.9 11.0 65 3.6 SSW 11 13 6 7 1019.8 1019.5 0.0
19/05:00am 17.7 16.8 10.6 63 3.8 SW 6 7 3 4 1019.6 1019.3 0.0
19/04:30am 17.8 16.9 10.7 63 3.8 WNW 6 6 3 3 1019.4 1019.1 0.0
19/04:00am 17.7 16.9 11.7 68 3.3 NW 7 9 4 5 1019.1 1018.8 0.0
19/03:30am 18.2 16.7 12.0 67 3.4 NNW 11 13 6 7 1019.0 1018.7 0.0
19/03:00am 18.3 16.2 9.6 57 4.6 NNE 11 13 6 7 1019.0 1018.7 0.0
19/02:30am 18.8 17.0 9.3 54 5.0 ENE 9 13 5 7 1019.1 1018.8 0.0
19/02:00am 18.8 16.6 9.3 54 5.0 NE 11 15 6 8 1019.1 1018.8 0.0
19/01:30am 18.9 17.5 9.4 54 5.0 ENE 7 9 4 5 1019.2 1018.9 0.0
19/01:00am 18.9 17.7 9.7 55 4.9 E 6 7 3 4 1019.2 1018.9 0.0
19/12:30am 18.7 17.0 10.0 57 4.7 E 9 9 5 5 1019.2 1018.9 0.0
19/12:00am 18.9 16.6 9.1 53 5.1 E 11 13 6 7 1019.4 1019.1 0.0
 
Date/Time
EST
Temp
°C
App
Temp
°C
Dew
Point
Rel
Hum
%
Delta-T
°C
Wind Press
QNH
hPa
Press
MSL
hPa
Rain
since 9 am
mm
Dir
 
Spd
km/h
Gust
km/h
Spd
kts
Gust
kts
18/11:30pm 19.0 17.1 9.2 53 5.2 NE 9 13 5 7 1019.7 1019.4 0.0
18/11:00pm 19.1 17.0 9.6 54 5.0 ENE 11 15 6 8 1019.7 1019.4 0.0
18/10:30pm 18.7 16.1 9.2 54 5.0 NNE 13 17 7 9 1019.8 1019.5 0.0
18/10:00pm 19.0 16.8 9.2 53 5.2 NE 11 15 6 8 1019.7 1019.4 0.0
18/09:30pm 19.2 16.5 9.1 52 5.3 NE 13 20 7 11 1019.6 1019.3 0.0
18/09:00pm 19.1 16.3 8.7 51 5.4 NE 13 19 7 10 1019.5 1019.2 0.0
18/08:30pm 19.4 16.2 8.4 49 5.7 NE 15 22 8 12 1019.4 1019.1 0.0
18/08:00pm 19.6 15.8 8.9 50 5.6 ENE 19 22 10 12 1019.0 1018.7 0.0
18/07:30pm 19.9 15.7 8.3 47 6.1 ENE 20 26 11 14 1018.7 1018.4 0.0
18/07:00pm 19.7 14.8 7.1 44 6.4 E 22 26 12 14 1018.3 1018.0 0.0
18/06:30pm 19.7 14.8 7.1 44 6.4 E 22 28 12 15 1017.9 1017.6 0.0
18/06:00pm 19.6 14.5 6.0 41 6.8 E 22 24 12 13 1017.7 1017.4 0.0
18/05:30pm 19.9 14.5 6.3 41 6.8 E 24 28 13 15 1017.2 1016.9 0.0
18/05:00pm 20.4 14.8 5.6 38 7.3 E 24 28 13 15 1016.8 1016.5 0.0
18/04:30pm 21.2 16.0 7.4 41 7.1 E 24 30 13 16 1016.5 1016.2 0.0
18/04:00pm 21.4 15.7 6.5 38 7.6 E 26 30 14 16 1016.3 1016.0 0.0
18/03:30pm 21.8 16.0 6.1 36 8.0 E 26 30 14 16 1016.2 1015.9 0.0
18/03:00pm 22.0 15.9 4.6 32 8.6 E 26 32 14 17 1016.3 1016.0 0.0
18/02:30pm 21.9 15.6 4.0 31 8.7 E 26 32 14 17 1016.2 1015.9 0.0
18/02:00pm 22.4 16.0 5.4 33 8.5 ESE 28 32 15 17 1016.4 1016.1 0.0
18/01:30pm 22.3 16.6 4.8 32 8.7 ESE 24 32 13 17 1016.6 1016.3 0.0
18/01:00pm 22.3 15.9 5.3 33 8.5 ESE 28 32 15 17 1017.0 1016.7 0.0
18/12:30pm 22.3 15.4 4.8 32 8.7 SE 30 33 16 18 1017.6 1017.3 0.0
18/12:00pm 22.1 14.7 4.2 31 8.7 SE 32 37 17 20 1017.9 1017.6 0.0
18/11:30am 22.1 14.6 3.3 29 9.0 SSE 32 37 17 20 1018.3 1018.0 0.0
18/11:00am 21.9 14.6 4.5 32 8.5 SSE 32 39 17 21 1018.8 1018.5 0.0
18/10:30am 21.5 13.7 5.0 34 8.2 SSE 35 43 19 23 1019.1 1018.8 0.0
18/10:00am 21.2 12.6 4.7 34 8.1 S 39 48 21 26 1019.0 1018.7 0.0
18/09:30am 21.0 13.5 6.5 39 7.4 S 35 43 19 23 1019.1 1018.8 0.0
18/09:00am 21.0 12.6 5.8 37 7.6 S 39 46 21 25 1019.0 1018.7 0.0
18/08:30am 20.9 13.0 6.4 39 7.3 S 37 50 20 27 1018.8 1018.5 0.0
18/08:00am 20.6 13.6 5.8 38 7.4 S 32 39 17 21 1018.6 1018.3 0.0
18/07:30am 20.0 14.1 5.6 39 7.1 S 26 35 14 19 1018.4 1018.1 0.0
18/07:00am 19.3 13.6 5.0 39 7.0 S 24 33 13 18 1017.9 1017.6 0.0
18/06:30am 18.8 12.2 4.2 38 7.0 S 28 33 15 18 1017.5 1017.2 0.0
18/06:00am 18.5 11.4 5.4 42 6.4 S 32 37 17 20 1017.3 1017.0 0.0
18/05:30am 18.8 11.7 3.8 37 7.1 S 30 35 16 19 1016.9 1016.6 0.0
18/05:00am 19.1 11.6 3.7 36 7.3 SSW 32 37 17 20 1016.6 1016.3 0.0
18/04:30am 19.3 11.8 3.5 35 7.5 S 32 37 17 20 1016.2 1015.9 0.0
18/04:00am 19.5 12.6 4.8 38 7.1 SSW 30 33 16 18 1015.8 1015.5 0.0
18/03:30am 20.0 12.4 6.0 40 7.0 S 35 41 19 22 1015.4 1015.1 0.0
18/03:00am 19.2 14.8 10.5 57 4.7 SSW 24 30 13 16 1015.3 1015.0 0.0
18/02:30am 18.1 15.6 14.0 77 2.4 SW 20 26 11 14 1015.4 1015.1 0.0
18/02:00am 18.4 16.2 16.0 86 1.4 W 22 28 12 15 1015.4 1015.1 0.0
18/01:30am 19.0 16.2 16.4 85 1.6 W 26 35 14 19 1015.1 1014.8 0.0
18/01:00am 19.1 16.1 16.9 87 1.3 WNW 28 33 15 18 1015.0 1014.7 0.0
18/12:30am 19.0 15.7 17.0 88 1.2 WNW 30 33 16 18 1015.0 1014.7 0.0
18/12:00am 19.2 16.7 17.2 88 1.2 WNW 26 32 14 17 1015.0 1014.7 0.0
 
Date/Time
EST
Temp
°C
App
Temp
°C
Dew
Point
Rel
Hum
%
Delta-T
°C
Wind Press
QNH
hPa
Press
MSL
hPa
Rain
since 9 am
mm
Dir
 
Spd
km/h
Gust
km/h
Spd
kts
Gust
kts
17/11:30pm 19.3 16.3 16.9 86 1.5 WNW 28 32 15 17 1014.9 1014.6 0.0
17/11:00pm 19.2 16.9 16.6 85 1.6 NW 24 28 13 15 1014.7 1014.4 0.0
17/10:30pm 19.5 17.1 16.3 82 1.9 WNW 24 28 13 15 1014.7 1014.4 0.0
17/10:00pm 19.6 17.2 16.3 81 2.0 WNW 24 30 13 16 1015.0 1014.7 0.0
17/09:30pm 19.8 16.5 16.1 79 2.2 NW 28 35 15 19 1014.8 1014.5 0.0
17/09:00pm 20.1 16.3 15.7 76 2.6 WNW 30 35 16 19 1014.8 1014.5 0.0
17/08:30pm 20.3 16.9 14.7 70 3.3 WNW 26 32 14 17 1014.7 1014.4 0.0
17/08:00pm 20.6 15.6 13.3 63 4.2 NW 32 43 17 23 1014.0 1013.7 0.0
17/07:30pm 20.7 17.7 13.6 64 4.1 NW 22 32 12 17 1013.8 1013.5 0.0
17/07:00pm 20.6 18.1 13.6 64 4.0 WNW 19 22 10 12 1013.3 1013.1 0.0
17/06:30pm 20.6 19.6 13.3 63 4.2 N 11 20 6 11 1013.0 1012.8 0.0
17/06:00pm 21.1 20.4 13.3 61 4.5 N 9 13 5 7 1012.6 1012.4 0.0
17/05:30pm 21.9 19.6 13.0 57 5.1 NNW 17 30 9 16 1012.3 1012.1 0.0
17/05:00pm 22.6 20.0 13.9 58 5.1 NNW 20 30 11 16 1012.2 1012.0 0.0
17/04:30pm 23.6 23.5 15.9 62 4.7 N 11 15 6 8 1011.9 1011.6 0.0
17/04:00pm 24.1 23.6 15.9 60 5.0 N 13 19 7 10 1011.5 1011.2 0.0

Other Formats:

Comma delimited format used in spreadsheet applications
http://www.bom.gov.au/fwo/IDQ60801/IDQ60801.94584.axf

JavaScript Object Notation format (JSON) in row-major order
http://www.bom.gov.au/fwo/IDQ60801/IDQ60801.94584.json